sensor_id;sensor_type;location;lat;lon;timestamp;pressure;altitude;pressure_sealevel;temperature;humidity
8717;BME280;4395;48.554;8.820;2023-07-29T00:00:50;95538.44;;;16.77;100.00
8717;BME280;4395;48.554;8.820;2023-07-29T00:02:53;95550.78;;;16.69;100.00
8717;BME280;4395;48.554;8.820;2023-07-29T00:04:55;95541.03;;;16.68;100.00
8717;BME280;4395;48.554;8.820;2023-07-29T00:06:58;95538.53;;;16.72;100.00
8717;BME280;4395;48.554;8.820;2023-07-29T00:09:01;95546.69;;;16.72;100.00
8717;BME280;4395;48.554;8.820;2023-07-29T00:11:04;95527.69;;;16.72;100.00
8717;BME280;4395;48.554;8.820;2023-07-29T00:13:08;95532.31;;;16.71;100.00
8717;BME280;4395;48.554;8.820;2023-07-29T00:15:11;95530.69;;;16.70;100.00
8717;BME280;4395;48.554;8.820;2023-07-29T00:17:14;95545.56;;;16.73;100.00
8717;BME280;4395;48.554;8.820;2023-07-29T00:19:17;95532.31;;;16.71;100.00
8717;BME280;4395;48.554;8.820;2023-07-29T00:21:21;95540.06;;;16.78;100.00
8717;BME280;4395;48.554;8.820;2023-07-29T00:23:24;95534.13;;;16.76;100.00
8717;BME280;4395;48.554;8.820;2023-07-29T00:25:27;95539.53;;;16.76;100.00
8717;BME280;4395;48.554;8.820;2023-07-29T00:27:30;95537.84;;;16.80;100.00
8717;BME280;4395;48.554;8.820;2023-07-29T00:29:34;95544.19;;;16.89;100.00
8717;BME280;4395;48.554;8.820;2023-07-29T00:31:36;95528.50;;;16.86;100.00
8717;BME280;4395;48.554;8.820;2023-07-29T00:33:39;95531.50;;;16.71;100.00
8717;BME280;4395;48.554;8.820;2023-07-29T00:35:42;95527.09;;;16.75;100.00
8717;BME280;4395;48.554;8.820;2023-07-29T00:37:45;95543.34;;;16.75;100.00
8717;BME280;4395;48.554;8.820;2023-07-29T00:39:48;95543.88;;;16.77;100.00
8717;BME280;4395;48.554;8.820;2023-07-29T00:41:51;95523.34;;;16.71;100.00
8717;BME280;4395;48.554;8.820;2023-07-29T00:43:56;95525.69;;;16.78;100.00
8717;BME280;4395;48.554;8.820;2023-07-29T00:45:59;95525.19;;;16.89;100.00
8717;BME280;4395;48.554;8.820;2023-07-29T00:48:04;95523.06;;;16.86;100.00
8717;BME280;4395;48.554;8.820;2023-07-29T00:50:09;95508.19;;;16.97;100.00
8717;BME280;4395;48.554;8.820;2023-07-29T00:52:11;95524.47;;;16.97;100.00
8717;BME280;4395;48.554;8.820;2023-07-29T00:54:14;95521.25;;;16.95;100.00
8717;BME280;4395;48.554;8.820;2023-07-29T00:56:17;95503.69;;;16.93;100.00
8717;BME280;4395;48.554;8.820;2023-07-29T00:58:20;95520.25;;;17.05;100.00
8717;BME280;4395;48.554;8.820;2023-07-29T01:00:24;95519.25;;;17.01;100.00
8717;BME280;4395;48.554;8.820;2023-07-29T01:02:28;95513.03;;;17.00;100.00
8717;BME280;4395;48.554;8.820;2023-07-29T01:04:34;95517.66;;;17.00;100.00
8717;BME280;4395;48.554;8.820;2023-07-29T01:06:45;95526.09;;;16.98;100.00
8717;BME280;4395;48.554;8.820;2023-07-29T01:08:56;95525.69;;;16.91;100.00
8717;BME280;4395;48.554;8.820;2023-07-29T01:11:06;95523.69;;;16.97;100.00
8717;BME280;4395;48.554;8.820;2023-07-29T01:13:19;95514.44;;;16.84;100.00
8717;BME280;4395;48.554;8.820;2023-07-29T01:15:29;95531.22;;;16.86;100.00
8717;BME280;4395;48.554;8.820;2023-07-29T01:17:41;95518.34;;;16.78;100.00
8717;BME280;4395;48.554;8.820;2023-07-29T01:19:55;95525.88;;;16.81;100.00
8717;BME280;4395;48.554;8.820;2023-07-29T01:22:02;95528.00;;;16.84;100.00
8717;BME280;4395;48.554;8.820;2023-07-29T01:24:06;95519.06;;;16.84;100.00
8717;BME280;4395;48.554;8.820;2023-07-29T01:26:09;95522.06;;;16.82;100.00
8717;BME280;4395;48.554;8.820;2023-07-29T01:28:12;95524.88;;;16.77;100.00
8717;BME280;4395;48.554;8.820;2023-07-29T01:30:16;95519.94;;;16.79;100.00
8717;BME280;4395;48.554;8.820;2023-07-29T01:32:25;95518.25;;;16.83;100.00
8717;BME280;4395;48.554;8.820;2023-07-29T01:34:36;95493.19;;;16.59;100.00
8717;BME280;4395;48.554;8.820;2023-07-29T01:36:43;95500.94;;;16.65;100.00
8717;BME280;4395;48.554;8.820;2023-07-29T01:38:49;95507.88;;;16.71;100.00
8717;BME280;4395;48.554;8.820;2023-07-29T01:40:56;95513.00;;;16.73;100.00
8717;BME280;4395;48.554;8.820;2023-07-29T01:42:59;95505.78;;;16.68;100.00
8717;BME280;4395;48.554;8.820;2023-07-29T01:45:03;95505.56;;;16.65;100.00
8717;BME280;4395;48.554;8.820;2023-07-29T01:47:06;95509.34;;;16.64;100.00
8717;BME280;4395;48.554;8.820;2023-07-29T01:49:09;95507.19;;;16.66;100.00
8717;BME280;4395;48.554;8.820;2023-07-29T01:51:12;95491.56;;;16.58;100.00
8717;BME280;4395;48.554;8.820;2023-07-29T01:53:15;95492.66;;;16.57;100.00
8717;BME280;4395;48.554;8.820;2023-07-29T01:55:18;95492.16;;;16.55;100.00
8717;BME280;4395;48.554;8.820;2023-07-29T01:57:22;95496.06;;;16.49;100.00
8717;BME280;4395;48.554;8.820;2023-07-29T01:59:25;95491.16;;;16.51;100.00
8717;BME280;4395;48.554;8.820;2023-07-29T02:01:27;95476.50;;;16.52;100.00
8717;BME280;4395;48.554;8.820;2023-07-29T02:03:29;95478.69;;;16.50;100.00
8717;BME280;4395;48.554;8.820;2023-07-29T02:05:32;95487.63;;;16.50;100.00
8717;BME280;4395;48.554;8.820;2023-07-29T02:07:35;95474.38;;;16.49;100.00
8717;BME280;4395;48.554;8.820;2023-07-29T02:09:38;95478.41;;;16.51;100.00
8717;BME280;4395;48.554;8.820;2023-07-29T02:11:41;95467.03;;;16.49;100.00
8717;BME280;4395;48.554;8.820;2023-07-29T02:13:45;95472.38;;;16.54;100.00
8717;BME280;4395;48.554;8.820;2023-07-29T02:15:48;95472.16;;;16.51;100.00
8717;BME280;4395;48.554;8.820;2023-07-29T02:17:51;95476.88;;;16.45;100.00
8717;BME280;4395;48.554;8.820;2023-07-29T02:19:54;95477.38;;;16.47;100.00
8717;BME280;4395;48.554;8.820;2023-07-29T02:21:57;95475.97;;;16.36;100.00
8717;BME280;4395;48.554;8.820;2023-07-29T02:24:00;95473.38;;;16.45;100.00
8717;BME280;4395;48.554;8.820;2023-07-29T02:26:03;95479.38;;;16.42;100.00
8717;BME280;4395;48.554;8.820;2023-07-29T02:28:06;95478.28;;;16.43;100.00
8717;BME280;4395;48.554;8.820;2023-07-29T02:30:11;95478.38;;;16.37;100.00
8717;BME280;4395;48.554;8.820;2023-07-29T02:32:14;95469.31;;;16.28;100.00
8717;BME280;4395;48.554;8.820;2023-07-29T02:34:17;95461.09;;;16.33;100.00
8717;BME280;4395;48.554;8.820;2023-07-29T02:36:19;95477.47;;;16.28;100.00
8717;BME280;4395;48.554;8.820;2023-07-29T02:38:22;95412.31;;;15.87;100.00
8717;BME280;4395;48.554;8.820;2023-07-29T02:40:25;95481.78;;;16.29;100.00
8717;BME280;4395;48.554;8.820;2023-07-29T02:42:29;95485.00;;;16.31;100.00
8717;BME280;4395;48.554;8.820;2023-07-29T02:44:32;95481.00;;;16.43;100.00
8717;BME280;4395;48.554;8.820;2023-07-29T02:46:36;95478.50;;;16.46;100.00
8717;BME280;4395;48.554;8.820;2023-07-29T02:48:41;95483.63;;;16.48;100.00
8717;BME280;4395;48.554;8.820;2023-07-29T02:50:44;95478.22;;;16.61;100.00
8717;BME280;4395;48.554;8.820;2023-07-29T02:52:47;95474.81;;;16.69;100.00
8717;BME280;4395;48.554;8.820;2023-07-29T02:54:52;95471.69;;;16.62;100.00
8717;BME280;4395;48.554;8.820;2023-07-29T02:56:55;95442.06;;;16.66;100.00
8717;BME280;4395;48.554;8.820;2023-07-29T02:58:57;95464.19;;;16.73;100.00
8717;BME280;4395;48.554;8.820;2023-07-29T03:01:02;95415.91;;;16.43;100.00
8717;BME280;4395;48.554;8.820;2023-07-29T03:03:06;95468.91;;;16.81;100.00
8717;BME280;4395;48.554;8.820;2023-07-29T03:05:10;95463.97;;;16.83;100.00
8717;BME280;4395;48.554;8.820;2023-07-29T03:07:12;95457.63;;;16.88;100.00
8717;BME280;4395;48.554;8.820;2023-07-29T03:09:15;95447.09;;;16.86;100.00
8717;BME280;4395;48.554;8.820;2023-07-29T03:11:17;95449.31;;;16.84;100.00
8717;BME280;4395;48.554;8.820;2023-07-29T03:13:20;95448.88;;;16.91;100.00
8717;BME280;4395;48.554;8.820;2023-07-29T03:15:23;95442.06;;;16.93;100.00
8717;BME280;4395;48.554;8.820;2023-07-29T03:17:27;95446.47;;;16.89;100.00
8717;BME280;4395;48.554;8.820;2023-07-29T03:19:32;95449.47;;;17.01;100.00
8717;BME280;4395;48.554;8.820;2023-07-29T03:21:34;95451.19;;;16.97;100.00
8717;BME280;4395;48.554;8.820;2023-07-29T03:23:38;95441.44;;;16.96;100.00
8717;BME280;4395;48.554;8.820;2023-07-29T03:25:41;95441.94;;;16.98;100.00
8717;BME280;4395;48.554;8.820;2023-07-29T03:27:44;95439.84;;;16.95;100.00
8717;BME280;4395;48.554;8.820;2023-07-29T03:29:47;95436.63;;;16.93;100.00
8717;BME280;4395;48.554;8.820;2023-07-29T03:31:49;95440.13;;;17.08;100.00
8717;BME280;4395;48.554;8.820;2023-07-29T03:33:52;95435.53;;;16.94;100.00
8717;BME280;4395;48.554;8.820;2023-07-29T03:35:56;95443.25;;;17.01;100.00
8717;BME280;4395;48.554;8.820;2023-07-29T03:37:59;95448.88;;;16.91;100.00
8717;BME280;4395;48.554;8.820;2023-07-29T03:40:02;95451.19;;;16.97;100.00
8717;BME280;4395;48.554;8.820;2023-07-29T03:42:06;95444.66;;;16.98;100.00
8717;BME280;4395;48.554;8.820;2023-07-29T03:44:09;95446.06;;;16.96;100.00
8717;BME280;4395;48.554;8.820;2023-07-29T03:46:12;95447.47;;;16.93;100.00
8717;BME280;4395;48.554;8.820;2023-07-29T03:48:16;95452.91;;;16.93;100.00
8717;BME280;4395;48.554;8.820;2023-07-29T03:50:18;95449.50;;;16.88;100.00
8717;BME280;4395;48.554;8.820;2023-07-29T03:52:22;95446.78;;;17.01;100.00
8717;BME280;4395;48.554;8.820;2023-07-29T03:54:25;95445.47;;;16.99;100.00
8717;BME280;4395;48.554;8.820;2023-07-29T03:56:28;95433.31;;;16.96;100.00
8717;BME280;4395;48.554;8.820;2023-07-29T03:58:31;95434.81;;;16.89;100.00
8717;BME280;4395;48.554;8.820;2023-07-29T04:00:34;95432.41;;;16.87;100.00
8717;BME280;4395;48.554;8.820;2023-07-29T04:02:37;95440.16;;;16.94;100.00
8717;BME280;4395;48.554;8.820;2023-07-29T04:04:40;95449.47;;;17.01;100.00
8717;BME280;4395;48.554;8.820;2023-07-29T04:06:43;95437.03;;;17.00;100.00
8717;BME280;4395;48.554;8.820;2023-07-29T04:08:47;95454.41;;;16.99;100.00
8717;BME280;4395;48.554;8.820;2023-07-29T04:10:50;95453.81;;;17.02;100.00
8717;BME280;4395;48.554;8.820;2023-07-29T04:12:53;95445.38;;;16.90;100.00
8717;BME280;4395;48.554;8.820;2023-07-29T04:14:56;95443.16;;;16.92;100.00
8717;BME280;4395;48.554;8.820;2023-07-29T04:16:59;95440.66;;;16.96;100.00
8717;BME280;4395;48.554;8.820;2023-07-29T04:19:01;95443.38;;;16.82;100.00
8717;BME280;4395;48.554;8.820;2023-07-29T04:21:04;95457.53;;;16.79;100.00
8717;BME280;4395;48.554;8.820;2023-07-29T04:23:07;95463.16;;;16.83;100.00
8717;BME280;4395;48.554;8.820;2023-07-29T04:25:11;95456.13;;;16.95;100.00
8717;BME280;4395;48.554;8.820;2023-07-29T04:27:14;95446.28;;;16.99;100.00
8717;BME280;4395;48.554;8.820;2023-07-29T04:29:17;95442.25;;;16.97;100.00
8717;BME280;4395;48.554;8.820;2023-07-29T04:31:20;95428.28;;;17.03;100.00
8717;BME280;4395;48.554;8.820;2023-07-29T04:33:23;95428.56;;;17.02;100.00
8717;BME280;4395;48.554;8.820;2023-07-29T04:35:26;95433.00;;;16.98;100.00
8717;BME280;4395;48.554;8.820;2023-07-29T04:37:27;95457.03;;;17.04;100.00
8717;BME280;4395;48.554;8.820;2023-07-29T04:39:30;95492.00;;;17.20;100.00
8717;BME280;4395;48.554;8.820;2023-07-29T04:41:36;95476.03;;;17.04;100.00
8717;BME280;4395;48.554;8.820;2023-07-29T04:43:38;95445.28;;;16.82;100.00
8717;BME280;4395;48.554;8.820;2023-07-29T04:45:42;95464.38;;;16.90;100.00
8717;BME280;4395;48.554;8.820;2023-07-29T04:47:45;95476.31;;;17.03;100.00
8717;BME280;4395;48.554;8.820;2023-07-29T04:49:48;95478.84;;;16.86;100.00
8717;BME280;4395;48.554;8.820;2023-07-29T04:51:51;95473.22;;;16.82;100.00
8717;BME280;4395;48.554;8.820;2023-07-29T04:53:54;95457.75;;;16.83;100.00
8717;BME280;4395;48.554;8.820;2023-07-29T04:55:57;95465.19;;;16.77;100.00
8717;BME280;4395;48.554;8.820;2023-07-29T04:58:01;95467.28;;;16.80;100.00
8717;BME280;4395;48.554;8.820;2023-07-29T05:00:05;95464.56;;;16.80;100.00
8717;BME280;4395;48.554;8.820;2023-07-29T05:02:08;95463.53;;;16.62;100.00
8717;BME280;4395;48.554;8.820;2023-07-29T05:04:10;95465.28;;;16.72;100.00
8717;BME280;4395;48.554;8.820;2023-07-29T05:06:13;95462.97;;;16.65;100.00
8717;BME280;4395;48.554;8.820;2023-07-29T05:08:16;95459.56;;;16.74;100.00
8717;BME280;4395;48.554;8.820;2023-07-29T05:10:19;95441.13;;;16.57;100.00
8717;BME280;4395;48.554;8.820;2023-07-29T05:12:22;95455.09;;;16.64;100.00
8717;BME280;4395;48.554;8.820;2023-07-29T05:14:25;95461.47;;;16.73;100.00
8717;BME280;4395;48.554;8.820;2023-07-29T05:16:29;95451.31;;;16.65;100.00
8717;BME280;4395;48.554;8.820;2023-07-29T05:18:31;95464.16;;;16.87;100.00
8717;BME280;4395;48.554;8.820;2023-07-29T05:20:34;95449.03;;;17.94;100.00
8717;BME280;4395;48.554;8.820;2023-07-29T05:22:37;95452.34;;;19.06;100.00
8717;BME280;4395;48.554;8.820;2023-07-29T05:24:40;95470.94;;;19.21;100.00
8717;BME280;4395;48.554;8.820;2023-07-29T05:26:42;95474.63;;;18.69;100.00
8717;BME280;4395;48.554;8.820;2023-07-29T05:28:45;95469.88;;;18.21;100.00
8717;BME280;4395;48.554;8.820;2023-07-29T05:30:50;95476.47;;;17.84;100.00
8717;BME280;4395;48.554;8.820;2023-07-29T05:32:53;95457.78;;;17.68;100.00
8717;BME280;4395;48.554;8.820;2023-07-29T05:34:55;95457.09;;;17.63;100.00
8717;BME280;4395;48.554;8.820;2023-07-29T05:36:58;95455.66;;;17.65;100.00
8717;BME280;4395;48.554;8.820;2023-07-29T05:39:00;95447.31;;;17.62;100.00
8717;BME280;4395;48.554;8.820;2023-07-29T05:41:02;95456.38;;;17.71;100.00
8717;BME280;4395;48.554;8.820;2023-07-29T05:43:04;95458.16;;;17.76;100.00
8717;BME280;4395;48.554;8.820;2023-07-29T05:45:08;95444.88;;;17.74;100.00
8717;BME280;4395;48.554;8.820;2023-07-29T05:47:12;95452.25;;;17.74;100.00
8717;BME280;4395;48.554;8.820;2023-07-29T05:49:15;95440.75;;;17.77;100.00
8717;BME280;4395;48.554;8.820;2023-07-29T05:51:18;95437.72;;;17.78;100.00
8717;BME280;4395;48.554;8.820;2023-07-29T05:53:21;95433.22;;;17.96;100.00
8717;BME280;4395;48.554;8.820;2023-07-29T05:55:24;95434.13;;;17.91;100.00
8717;BME280;4395;48.554;8.820;2023-07-29T05:57:27;95434.75;;;17.88;100.00
8717;BME280;4395;48.554;8.820;2023-07-29T05:59:30;95433.22;;;17.74;100.00
8717;BME280;4395;48.554;8.820;2023-07-29T06:01:33;95439.41;;;17.88;100.00
8717;BME280;4395;48.554;8.820;2023-07-29T06:03:37;95443.47;;;17.77;100.00
8717;BME280;4395;48.554;8.820;2023-07-29T06:05:40;95439.41;;;17.88;100.00
8717;BME280;4395;48.554;8.820;2023-07-29T06:07:43;95437.03;;;18.17;100.00
8717;BME280;4395;48.554;8.820;2023-07-29T06:09:46;95453.47;;;19.14;100.00
8717;BME280;4395;48.554;8.820;2023-07-29T06:11:49;95430.94;;;19.74;100.00
8717;BME280;4395;48.554;8.820;2023-07-29T06:13:55;95437.47;;;20.16;100.00
8717;BME280;4395;48.554;8.820;2023-07-29T06:15:59;95460.72;;;20.39;100.00
8717;BME280;4395;48.554;8.820;2023-07-29T06:18:02;95468.47;;;19.59;100.00
8717;BME280;4395;48.554;8.820;2023-07-29T06:20:07;95473.22;;;19.28;100.00
8717;BME280;4395;48.554;8.820;2023-07-29T06:22:10;95447.22;;;19.13;100.00
8717;BME280;4395;48.554;8.820;2023-07-29T06:24:13;95466.56;;;18.94;100.00
8717;BME280;4395;48.554;8.820;2023-07-29T06:26:15;95465.88;;;18.80;100.00
8717;BME280;4395;48.554;8.820;2023-07-29T06:28:18;95474.56;;;18.60;100.00
8717;BME280;4395;48.554;8.820;2023-07-29T06:30:21;95469.53;;;18.76;100.00
8717;BME280;4395;48.554;8.820;2023-07-29T06:32:24;95476.34;;;19.04;100.00
8717;BME280;4395;48.554;8.820;2023-07-29T06:34:26;95456.13;;;18.88;100.00
8717;BME280;4395;48.554;8.820;2023-07-29T06:36:30;95510.88;;;18.86;100.00
8717;BME280;4395;48.554;8.820;2023-07-29T06:38:33;95520.91;;;18.46;100.00
8717;BME280;4395;48.554;8.820;2023-07-29T06:40:36;95530.75;;;18.34;100.00
8717;BME280;4395;48.554;8.820;2023-07-29T06:42:38;95537.03;;;18.20;100.00
8717;BME280;4395;48.554;8.820;2023-07-29T06:44:41;95530.09;;;18.14;100.00
8717;BME280;4395;48.554;8.820;2023-07-29T06:46:44;95512.22;;;17.77;100.00
8717;BME280;4395;48.554;8.820;2023-07-29T06:48:47;95511.59;;;17.80;100.00
8717;BME280;4395;48.554;8.820;2023-07-29T06:50:50;95506.97;;;17.81;100.00
8717;BME280;4395;48.554;8.820;2023-07-29T06:52:54;95500.03;;;17.75;100.00
8717;BME280;4395;48.554;8.820;2023-07-29T06:54:57;95510.19;;;17.83;100.00
8717;BME280;4395;48.554;8.820;2023-07-29T06:57:00;95502.63;;;17.80;100.00
8717;BME280;4395;48.554;8.820;2023-07-29T06:59:02;95510.50;;;17.81;100.00
8717;BME280;4395;48.554;8.820;2023-07-29T07:01:05;95503.50;;;17.89;100.00
8717;BME280;4395;48.554;8.820;2023-07-29T07:03:08;95500.91;;;17.84;100.00
8717;BME280;4395;48.554;8.820;2023-07-29T07:05:11;95483.06;;;17.91;100.00
8717;BME280;4395;48.554;8.820;2023-07-29T07:07:15;95488.50;;;17.91;100.00
8717;BME280;4395;48.554;8.820;2023-07-29T07:09:19;95486.47;;;17.97;100.00
8717;BME280;4395;48.554;8.820;2023-07-29T07:11:22;95487.34;;;18.06;100.00
8717;BME280;4395;48.554;8.820;2023-07-29T07:13:24;95479.41;;;18.18;100.00
8717;BME280;4395;48.554;8.820;2023-07-29T07:15:27;95481.34;;;18.18;100.00
8717;BME280;4395;48.554;8.820;2023-07-29T07:17:30;95479.19;;;18.28;100.00
8717;BME280;4395;48.554;8.820;2023-07-29T07:19:33;95487.94;;;18.48;100.00
8717;BME280;4395;48.554;8.820;2023-07-29T07:21:35;95493.09;;;18.58;100.00
8717;BME280;4395;48.554;8.820;2023-07-29T07:23:38;95494.13;;;18.62;100.00
8717;BME280;4395;48.554;8.820;2023-07-29T07:25:43;95494.59;;;18.64;100.00
8717;BME280;4395;48.554;8.820;2023-07-29T07:27:46;95497.34;;;18.64;100.00
8717;BME280;4395;48.554;8.820;2023-07-29T07:29:49;95479.44;;;18.72;100.00
8717;BME280;4395;48.554;8.820;2023-07-29T07:31:53;95500.81;;;18.95;100.00
8717;BME280;4395;48.554;8.820;2023-07-29T07:33:56;95499.22;;;18.94;100.00
8717;BME280;4395;48.554;8.820;2023-07-29T07:35:59;95504.50;;;18.91;100.00
8717;BME280;4395;48.554;8.820;2023-07-29T07:38:02;95495.91;;;19.06;100.00
8717;BME280;4395;48.554;8.820;2023-07-29T07:40:06;95505.34;;;19.09;100.00
8717;BME280;4395;48.554;8.820;2023-07-29T07:42:11;95512.09;;;19.11;100.00
8717;BME280;4395;48.554;8.820;2023-07-29T07:44:13;95495.94;;;19.15;100.00
8717;BME280;4395;48.554;8.820;2023-07-29T07:46:19;95505.13;;;19.36;100.00
8717;BME280;4395;48.554;8.820;2023-07-29T07:48:22;95496.13;;;19.27;100.00
8717;BME280;4395;48.554;8.820;2023-07-29T07:50:25;95488.91;;;19.31;100.00
8717;BME280;4395;48.554;8.820;2023-07-29T07:52:27;95499.03;;;19.48;100.00
8717;BME280;4395;48.554;8.820;2023-07-29T07:54:30;95505.16;;;19.53;100.00
8717;BME280;4395;48.554;8.820;2023-07-29T07:56:33;95497.97;;;19.57;100.00
8717;BME280;4395;48.554;8.820;2023-07-29T07:58:38;95500.72;;;19.75;100.00
8717;BME280;4395;48.554;8.820;2023-07-29T08:00:41;95498.44;;;19.59;100.00
8717;BME280;4395;48.554;8.820;2023-07-29T08:02:44;95502.44;;;19.53;100.00
8717;BME280;4395;48.554;8.820;2023-07-29T08:04:47;95502.78;;;19.61;100.00
8717;BME280;4395;48.554;8.820;2023-07-29T08:06:50;95509.13;;;19.47;100.00
8717;BME280;4395;48.554;8.820;2023-07-29T08:08:53;95507.69;;;19.50;100.00
8717;BME280;4395;48.554;8.820;2023-07-29T08:10:56;95505.19;;;19.71;100.00
8717;BME280;4395;48.554;8.820;2023-07-29T08:12:59;95511.13;;;19.73;100.00
8717;BME280;4395;48.554;8.820;2023-07-29T08:15:04;95508.56;;;19.76;100.00
8717;BME280;4395;48.554;8.820;2023-07-29T08:17:07;95514.00;;;19.76;100.00
8717;BME280;4395;48.554;8.820;2023-07-29T08:19:09;95517.38;;;19.99;100.00
8717;BME280;4395;48.554;8.820;2023-07-29T08:21:12;95519.94;;;20.13;100.00
8717;BME280;4395;48.554;8.820;2023-07-29T08:23:15;95514.50;;;20.04;100.00
8717;BME280;4395;48.554;8.820;2023-07-29T08:25:18;95519.31;;;20.24;100.00
8717;BME280;4395;48.554;8.820;2023-07-29T08:27:21;95523.16;;;20.32;100.00
8717;BME280;4395;48.554;8.820;2023-07-29T08:29:24;95525.72;;;20.29;100.00
8717;BME280;4395;48.554;8.820;2023-07-29T08:31:28;95523.94;;;20.59;100.00
8717;BME280;4395;48.554;8.820;2023-07-29T08:33:32;95524.56;;;20.55;100.00
8717;BME280;4395;48.554;8.820;2023-07-29T08:35:36;95520.75;;;20.48;100.00
8717;BME280;4395;48.554;8.820;2023-07-29T08:37:39;95515.41;;;20.60;100.00
8717;BME280;4395;48.554;8.820;2023-07-29T08:39:42;95519.72;;;20.70;100.00
8717;BME280;4395;48.554;8.820;2023-07-29T08:41:48;95517.25;;;20.94;100.00
8717;BME280;4395;48.554;8.820;2023-07-29T08:44:09;95504.94;;;21.26;100.00
8717;BME280;4395;48.554;8.820;2023-07-29T08:46:14;95530.28;;;21.35;100.00
8717;BME280;4395;48.554;8.820;2023-07-29T08:48:24;95518.84;;;21.04;100.00
8717;BME280;4395;48.554;8.820;2023-07-29T08:50:32;95520.00;;;20.94;100.00
8717;BME280;4395;48.554;8.820;2023-07-29T08:52:36;95521.53;;;21.12;100.00
8717;BME280;4395;48.554;8.820;2023-07-29T08:54:39;95509.72;;;21.59;100.00
8717;BME280;4395;48.554;8.820;2023-07-29T08:56:43;95525.13;;;21.63;100.00
8717;BME280;4395;48.554;8.820;2023-07-29T08:58:45;95487.66;;;21.64;100.00
8717;BME280;4395;48.554;8.820;2023-07-29T09:00:49;95525.94;;;21.64;100.00
8717;BME280;4395;48.554;8.820;2023-07-29T09:02:53;95522.06;;;21.65;100.00
8717;BME280;4395;48.554;8.820;2023-07-29T09:04:58;95524.09;;;21.76;100.00
8717;BME280;4395;48.554;8.820;2023-07-29T09:07:01;95523.22;;;21.85;100.00
8717;BME280;4395;48.554;8.820;2023-07-29T09:09:04;95521.41;;;21.89;100.00
8717;BME280;4395;48.554;8.820;2023-07-29T09:11:07;95519.94;;;21.91;100.00
8717;BME280;4395;48.554;8.820;2023-07-29T09:13:10;95507.16;;;22.25;100.00
8717;BME280;4395;48.554;8.820;2023-07-29T09:15:14;95497.38;;;22.36;100.00
8717;BME280;4395;48.554;8.820;2023-07-29T09:17:31;95501.75;;;22.49;100.00
8717;BME280;4395;48.554;8.820;2023-07-29T09:19:34;95491.84;;;22.57;100.00
8717;BME280;4395;48.554;8.820;2023-07-29T09:21:39;95495.75;;;22.23;100.00
8717;BME280;4395;48.554;8.820;2023-07-29T09:23:44;95496.50;;;22.44;100.00
8717;BME280;4395;48.554;8.820;2023-07-29T09:25:47;95476.22;;;22.57;100.00
8717;BME280;4395;48.554;8.820;2023-07-29T09:27:50;95464.44;;;23.02;100.00
8717;BME280;4395;48.554;8.820;2023-07-29T09:32:17;95474.63;;;23.26;100.00
8717;BME280;4395;48.554;8.820;2023-07-29T09:34:20;95479.88;;;23.43;100.00
8717;BME280;4395;48.554;8.820;2023-07-29T09:36:23;95501.03;;;23.42;100.00
8717;BME280;4395;48.554;8.820;2023-07-29T09:38:27;95493.72;;;23.59;100.00
8717;BME280;4395;48.554;8.820;2023-07-29T09:40:34;95466.97;;;23.31;100.00
8717;BME280;4395;48.554;8.820;2023-07-29T09:42:38;95469.25;;;23.54;100.00
8717;BME280;4395;48.554;8.820;2023-07-29T09:44:41;95468.13;;;23.55;100.00
8717;BME280;4395;48.554;8.820;2023-07-29T09:46:46;95475.63;;;23.82;100.00
8717;BME280;4395;48.554;8.820;2023-07-29T09:48:49;95472.00;;;23.54;100.00
8717;BME280;4395;48.554;8.820;2023-07-29T09:50:54;95464.91;;;23.65;100.00
8717;BME280;4395;48.554;8.820;2023-07-29T09:52:57;95473.94;;;23.53;100.00
8717;BME280;4395;48.554;8.820;2023-07-29T09:55:02;95465.81;;;22.96;100.00
8717;BME280;4395;48.554;8.820;2023-07-29T09:57:06;95475.97;;;23.07;100.00
8717;BME280;4395;48.554;8.820;2023-07-29T09:59:10;95476.31;;;23.30;100.00
8717;BME280;4395;48.554;8.820;2023-07-29T10:01:13;95491.19;;;23.54;100.00
8717;BME280;4395;48.554;8.820;2023-07-29T10:03:17;95479.28;;;23.37;100.00
8717;BME280;4395;48.554;8.820;2023-07-29T10:05:22;95477.03;;;23.52;100.00
8717;BME280;4395;48.554;8.820;2023-07-29T10:07:26;95487.56;;;23.62;100.00
8717;BME280;4395;48.554;8.820;2023-07-29T10:09:29;95475.63;;;23.82;100.00
8717;BME280;4395;48.554;8.820;2023-07-29T10:11:34;95497.88;;;23.93;100.00
8717;BME280;4395;48.554;8.820;2023-07-29T10:13:38;95504.19;;;24.21;100.00
8717;BME280;4395;48.554;8.820;2023-07-29T10:15:44;95487.88;;;24.13;100.00
8717;BME280;4395;48.554;8.820;2023-07-29T10:17:48;95503.28;;;24.57;100.00
8717;BME280;4395;48.554;8.820;2023-07-29T10:19:53;95507.19;;;24.16;100.00
8717;BME280;4395;48.554;8.820;2023-07-29T10:21:59;95501.69;;;23.76;100.00
8717;BME280;4395;48.554;8.820;2023-07-29T10:24:04;95509.06;;;24.00;100.00
8717;BME280;4395;48.554;8.820;2023-07-29T10:26:10;95501.16;;;24.66;100.00
8717;BME280;4395;48.554;8.820;2023-07-29T10:28:15;95496.41;;;24.79;100.00
8717;BME280;4395;48.554;8.820;2023-07-29T10:30:24;95518.94;;;23.89;100.00
8717;BME280;4395;48.554;8.820;2023-07-29T10:32:28;95494.97;;;23.73;100.00
8717;BME280;4395;48.554;8.820;2023-07-29T10:34:32;95489.66;;;24.33;100.00
8717;BME280;4395;48.554;8.820;2023-07-29T10:36:37;95483.19;;;24.85;100.00
8717;BME280;4395;48.554;8.820;2023-07-29T10:38:40;95495.38;;;25.15;100.00
8717;BME280;4395;48.554;8.820;2023-07-29T10:40:45;95490.06;;;25.22;100.00
8717;BME280;4395;48.554;8.820;2023-07-29T10:43:00;95481.72;;;25.35;100.00
8717;BME280;4395;48.554;8.820;2023-07-29T10:45:21;95478.94;;;24.72;93.93
8717;BME280;4395;48.554;8.820;2023-07-29T10:47:25;95463.31;;;25.54;93.46
8717;BME280;4395;48.554;8.820;2023-07-29T10:49:29;95487.72;;;25.40;94.43
8717;BME280;4395;48.554;8.820;2023-07-29T10:51:35;95486.72;;;25.64;90.35
8717;BME280;4395;48.554;8.820;2023-07-29T10:53:38;95486.84;;;25.36;91.30
8717;BME280;4395;48.554;8.820;2023-07-29T10:55:43;95478.94;;;24.72;91.51
8717;BME280;4395;48.554;8.820;2023-07-29T10:57:47;95491.06;;;24.15;96.15
8717;BME280;4395;48.554;8.820;2023-07-29T10:59:54;95486.91;;;23.93;97.66
8717;BME280;4395;48.554;8.820;2023-07-29T11:01:59;95490.63;;;24.13;95.72
8717;BME280;4395;48.554;8.820;2023-07-29T11:04:25;95486.38;;;23.75;98.35
8717;BME280;4395;48.554;8.820;2023-07-29T11:06:28;95485.41;;;23.95;99.72
8717;BME280;4395;48.554;8.820;2023-07-29T11:08:31;95495.31;;;24.12;97.37